createdAt,value
2018-11-04T00:00:20.208Z,24.30
2018-11-04T00:02:49.564Z,25.17
2018-11-04T00:05:18.545Z,23.37
2018-11-04T00:07:48.674Z,28.40
2018-11-04T00:10:17.394Z,24.10
2018-11-04T00:12:46.077Z,24.83
2018-11-04T00:15:14.741Z,25.20
2018-11-04T00:17:43.446Z,23.80
2018-11-04T00:23:09.164Z,24.77
2018-11-04T00:25:54.363Z,25.87
2018-11-04T00:28:23.007Z,24.80
2018-11-04T00:30:51.652Z,25.17
2018-11-04T00:33:20.320Z,26.50
2018-11-04T00:35:48.968Z,23.93
2018-11-04T00:38:17.623Z,27.80
2018-11-04T00:40:46.336Z,24.63
2018-11-04T00:43:14.984Z,26.73
2018-11-04T00:45:43.629Z,28.03
2018-11-04T00:48:12.294Z,24.10
2018-11-04T00:50:40.943Z,24.00
2018-11-04T00:53:09.590Z,24.30
2018-11-04T00:55:38.341Z,25.00
2018-11-04T00:58:19.059Z,24.20
2018-11-04T01:00:47.749Z,24.40
2018-11-04T01:03:16.376Z,26.50
2018-11-04T01:05:45.012Z,25.63
2018-11-04T01:08:13.698Z,25.00
2018-11-04T01:10:42.329Z,24.30
2018-11-04T01:13:10.981Z,23.57
2018-11-04T01:15:39.666Z,21.73
2018-11-04T01:18:08.335Z,21.67
2018-11-04T01:23:30.607Z,24.50
2018-11-04T01:25:59.281Z,22.00
2018-11-04T01:28:44.501Z,24.33
2018-11-04T01:31:13.186Z,23.33
2018-11-04T01:33:42.180Z,24.60
2018-11-04T01:36:10.794Z,25.00
2018-11-04T01:38:39.449Z,23.07
2018-11-04T01:41:08.069Z,27.80
2018-11-04T01:43:36.692Z,23.77
2018-11-04T01:46:05.407Z,23.37
2018-11-04T01:48:34.055Z,26.70
2018-11-04T01:51:02.722Z,23.60
2018-11-04T01:53:31.385Z,23.60
2018-11-04T01:56:00.022Z,27.97
2018-11-04T01:58:34.118Z,22.60
2018-11-04T02:01:03.002Z,23.13
2018-11-04T02:03:31.706Z,24.70
2018-11-04T02:06:00.430Z,25.57
2018-11-04T02:08:29.090Z,26.50
2018-11-04T02:10:57.730Z,25.50
2018-11-04T02:13:26.441Z,25.10
2018-11-04T02:15:55.069Z,25.53
2018-11-04T02:21:17.399Z,23.97
2018-11-04T02:23:46.046Z,24.00
2018-11-04T02:26:14.677Z,23.00
2018-11-04T02:28:43.318Z,25.03
2018-11-04T02:31:12.020Z,24.83
2018-11-04T02:33:40.689Z,23.63
2018-11-04T02:36:09.343Z,22.40
2018-11-04T02:38:38.031Z,23.47
2018-11-04T02:41:07.284Z,24.00
2018-11-04T02:43:35.948Z,24.10
2018-11-04T02:46:05.181Z,23.37
2018-11-04T02:48:34.061Z,22.37
2018-11-04T02:51:12.650Z,26.33
2018-11-04T02:53:41.394Z,25.03
2018-11-04T02:56:10.046Z,25.17
2018-11-04T02:58:38.708Z,23.80
2018-11-04T03:01:07.340Z,27.00
2018-11-04T03:03:36.049Z,23.07
2018-11-04T03:06:04.743Z,26.00
2018-11-04T03:08:33.424Z,26.00
2018-11-04T03:11:02.084Z,26.00
2018-11-04T03:13:30.789Z,27.50
2018-11-04T03:15:59.454Z,25.87
2018-11-04T03:18:28.106Z,23.00
2018-11-04T03:20:56.785Z,22.77
2018-11-04T03:23:25.414Z,23.40
2018-11-04T03:25:54.064Z,23.27
2018-11-04T03:28:22.731Z,24.80
2018-11-04T03:30:51.389Z,24.03
2018-11-04T03:33:20.063Z,23.20
2018-11-04T03:35:48.891Z,23.17
2018-11-04T03:38:17.536Z,25.33
2018-11-04T03:40:46.178Z,26.10
2018-11-04T03:43:14.862Z,25.33
2018-11-04T03:45:43.530Z,24.73
2018-11-04T03:48:12.195Z,23.67
2018-11-04T03:50:40.874Z,32.53
2018-11-04T03:53:09.555Z,22.70
2018-11-04T03:55:38.403Z,25.60
2018-11-04T03:58:07.088Z,23.53
2018-11-04T04:00:35.800Z,27.60
2018-11-04T04:03:04.828Z,24.13
2018-11-04T04:05:33.459Z,27.97
2018-11-04T04:08:02.089Z,32.40
2018-11-04T04:10:30.705Z,29.40
2018-11-04T04:13:02.627Z,31.50
2018-11-04T04:15:31.341Z,36.40
2018-11-04T04:17:59.989Z,35.60
2018-11-04T04:20:28.620Z,33.63
2018-11-04T04:22:57.290Z,31.43
2018-11-04T04:25:25.940Z,32.10
2018-11-04T04:27:54.580Z,38.07
2018-11-04T04:30:23.230Z,34.40
2018-11-04T04:32:51.889Z,32.27
2018-11-04T04:35:20.650Z,32.70
2018-11-04T04:37:49.287Z,35.03
2018-11-04T04:40:17.933Z,33.40
2018-11-04T04:42:46.573Z,33.40
2018-11-04T04:45:15.220Z,37.77
2018-11-04T04:47:43.857Z,37.77
2018-11-04T04:53:05.673Z,33.27
2018-11-04T04:55:34.359Z,41.67
2018-11-04T04:58:03.062Z,35.67
2018-11-04T05:00:31.741Z,38.37
2018-11-04T05:03:00.418Z,40.00
2018-11-04T05:05:29.092Z,40.77
2018-11-04T05:07:57.791Z,38.53
2018-11-04T05:10:26.518Z,38.50
2018-11-04T05:12:55.180Z,39.87
2018-11-04T05:15:23.881Z,38.97
2018-11-04T05:17:52.509Z,39.73
2018-11-04T05:20:21.152Z,40.27
2018-11-04T05:22:49.789Z,39.80
2018-11-04T05:25:18.429Z,37.70
2018-11-04T05:28:06.564Z,39.97
2018-11-04T05:30:35.230Z,37.43
2018-11-04T05:33:03.898Z,39.60
2018-11-04T05:35:32.586Z,36.50
2018-11-04T05:38:01.317Z,40.20
2018-11-04T05:40:29.972Z,39.43
2018-11-04T05:42:58.616Z,38.50
2018-11-04T05:45:27.248Z,40.13
2018-11-04T05:48:10.155Z,37.77
2018-11-04T05:50:38.784Z,37.03
2018-11-04T05:53:07.433Z,39.63
2018-11-04T05:55:36.089Z,42.00
2018-11-04T05:58:04.874Z,40.93
2018-11-04T06:00:33.505Z,42.70
2018-11-04T06:03:02.192Z,34.77
2018-11-04T06:05:30.896Z,41.73
2018-11-04T06:07:59.508Z,44.20
2018-11-04T06:10:39.892Z,40.50
2018-11-04T06:13:08.508Z,38.20
2018-11-04T06:15:37.164Z,41.03
2018-11-04T06:18:05.887Z,41.23
2018-11-04T06:20:34.557Z,38.20
2018-11-04T06:23:03.194Z,39.03
2018-11-04T06:25:31.837Z,37.90
2018-11-04T06:28:00.468Z,39.43
2018-11-04T06:30:29.130Z,40.03
2018-11-04T06:32:57.745Z,39.67
2018-11-04T06:35:26.421Z,42.07
2018-11-04T06:37:55.058Z,33.63
2018-11-04T06:40:23.699Z,40.43
2018-11-04T06:42:52.382Z,33.60
2018-11-04T06:45:21.062Z,39.10
2018-11-04T06:47:49.702Z,34.97
2018-11-04T06:50:18.380Z,37.37
2018-11-04T06:52:47.021Z,35.60
2018-11-04T06:55:15.693Z,37.10
2018-11-04T06:57:44.373Z,36.20
2018-11-04T07:03:15.972Z,37.17
2018-11-04T07:05:44.613Z,34.77
2018-11-04T07:08:13.255Z,34.77
2018-11-04T07:10:41.916Z,36.57
2018-11-04T07:13:10.582Z,30.90
2018-11-04T07:15:39.221Z,39.13
2018-11-04T07:18:07.881Z,31.13
2018-11-04T07:20:36.516Z,33.73
2018-11-04T07:23:05.645Z,36.73
2018-11-04T07:25:34.420Z,36.60
2018-11-04T07:28:03.220Z,35.07
2018-11-04T07:30:31.928Z,36.70
2018-11-04T07:33:00.678Z,38.60
2018-11-04T07:35:29.367Z,35.20
2018-11-04T07:37:58.130Z,33.30
2018-11-04T07:40:32.734Z,36.57
2018-11-04T07:43:05.006Z,34.33
2018-11-04T07:45:34.743Z,34.10
2018-11-04T07:48:03.463Z,34.80
2018-11-04T07:50:32.647Z,37.00
2018-11-04T07:53:06.350Z,33.80
2018-11-04T07:55:43.342Z,37.43
2018-11-04T07:58:11.993Z,34.60
2018-11-04T08:00:40.877Z,31.57
2018-11-04T08:03:12.648Z,33.83
2018-11-04T08:05:46.843Z,33.43
2018-11-04T08:08:15.579Z,31.10
2018-11-04T08:10:44.197Z,29.60
2018-11-04T08:13:12.860Z,32.70
2018-11-04T08:15:41.742Z,31.03
2018-11-04T08:18:10.393Z,32.90
2018-11-04T08:20:42.664Z,33.97
2018-11-04T08:23:11.351Z,31.33
2018-11-04T08:25:40.029Z,29.97
2018-11-04T08:28:09.154Z,32.67
2018-11-04T08:30:37.804Z,29.10
2018-11-04T08:33:06.556Z,28.33
2018-11-04T08:35:35.537Z,31.10
2018-11-04T08:38:04.232Z,29.23
2018-11-04T08:40:32.972Z,28.30
2018-11-04T08:43:01.598Z,31.33
2018-11-04T08:45:30.225Z,29.57
2018-11-04T08:47:59.272Z,29.27
2018-11-04T08:50:28.078Z,28.73
2018-11-04T08:52:56.753Z,26.67
2018-11-04T08:55:25.466Z,26.87
2018-11-04T08:57:54.183Z,27.73
2018-11-04T09:00:22.888Z,25.97
2018-11-04T09:02:51.597Z,26.07
2018-11-04T09:05:20.306Z,25.20
2018-11-04T09:07:48.940Z,26.10
2018-11-04T09:10:18.691Z,25.13
2018-11-04T09:12:47.404Z,23.87
2018-11-04T09:15:16.058Z,23.70
2018-11-04T09:17:44.720Z,26.63
2018-11-04T09:20:14.831Z,22.30
2018-11-04T09:22:44.005Z,23.17
2018-11-04T09:25:13.314Z,25.40
2018-11-04T09:27:42.043Z,26.53
2018-11-04T09:30:13.264Z,24.70
2018-11-04T09:32:42.016Z,22.23
2018-11-04T09:35:11.293Z,20.53
2018-11-04T09:37:39.956Z,24.10
2018-11-04T09:40:10.182Z,23.53
2018-11-04T09:42:38.859Z,21.30
2018-11-04T09:45:08.136Z,24.10
2018-11-04T09:47:36.902Z,22.30
2018-11-04T09:50:07.277Z,28.63
2018-11-04T09:52:35.994Z,22.70
2018-11-04T09:55:05.094Z,23.83
2018-11-04T09:57:34.892Z,25.20
2018-11-04T10:00:03.710Z,24.20
2018-11-04T10:02:32.369Z,24.53
2018-11-04T10:05:01.069Z,24.77
2018-11-04T10:07:29.799Z,25.67
2018-11-04T10:10:16.888Z,25.70
2018-11-04T10:12:45.664Z,25.20
2018-11-04T10:15:31.016Z,25.70
2018-11-04T10:18:02.986Z,23.30
2018-11-04T10:20:31.920Z,28.53
2018-11-04T10:23:12.438Z,25.10
2018-11-04T10:25:53.112Z,27.87
2018-11-04T10:28:21.865Z,24.83
2018-11-04T10:30:50.793Z,28.53
2018-11-04T10:33:19.549Z,23.17
2018-11-04T10:35:49.134Z,24.97
2018-11-04T10:38:19.552Z,26.00
2018-11-04T10:40:48.259Z,23.60
2018-11-04T10:43:17.143Z,25.43
2018-11-04T10:45:45.875Z,20.10
2018-11-04T10:48:14.596Z,20.67
2018-11-04T10:50:49.177Z,21.20
2018-11-04T10:53:17.962Z,20.80
2018-11-04T10:55:50.192Z,23.83
2018-11-04T10:58:18.915Z,24.60
2018-11-04T11:00:52.996Z,23.70
2018-11-04T11:03:21.780Z,23.87
2018-11-04T11:05:50.536Z,21.37
2018-11-04T11:08:19.352Z,23.70
2018-11-04T11:10:48.110Z,23.50
2018-11-04T11:13:16.851Z,24.63
2018-11-04T11:15:45.672Z,22.10
2018-11-04T11:18:14.688Z,23.33
2018-11-04T11:20:43.401Z,23.33
2018-11-04T11:23:12.141Z,23.00
2018-11-04T11:25:41.414Z,22.97
2018-11-04T11:28:10.181Z,21.80
2018-11-04T11:30:43.576Z,23.03
2018-11-04T11:33:12.294Z,21.70
2018-11-04T11:35:41.085Z,21.53
2018-11-04T11:38:09.912Z,22.40
2018-11-04T11:40:40.776Z,20.67
2018-11-04T11:43:10.476Z,20.47
2018-11-04T11:45:39.424Z,23.37
2018-11-04T11:48:08.594Z,22.73
2018-11-04T11:50:37.515Z,24.53
2018-11-04T11:53:06.496Z,25.90
2018-11-04T11:55:35.320Z,22.67
2018-11-04T11:58:04.111Z,25.50
2018-11-04T12:00:32.889Z,24.27
2018-11-04T12:03:01.713Z,28.17
2018-11-04T12:05:30.434Z,24.67
2018-11-04T12:07:59.176Z,23.67
2018-11-04T12:10:27.990Z,28.77
2018-11-04T12:12:56.836Z,27.13
2018-11-04T12:15:25.504Z,23.93
2018-11-04T12:17:54.336Z,26.70
2018-11-04T12:20:22.993Z,27.13
2018-11-04T12:22:51.768Z,26.93
2018-11-04T12:25:20.460Z,28.33
2018-11-04T12:27:49.286Z,29.33
2018-11-04T12:30:17.990Z,23.93
2018-11-04T12:32:46.652Z,28.87
2018-11-04T12:35:15.467Z,25.03
2018-11-04T12:37:44.142Z,24.93
2018-11-04T12:40:13.497Z,27.30
2018-11-04T12:42:42.213Z,27.20
2018-11-04T12:45:12.100Z,30.40
2018-11-04T12:47:40.840Z,26.83
2018-11-04T12:50:10.522Z,26.43
2018-11-04T12:52:39.267Z,29.03
2018-11-04T12:55:08.521Z,28.93
2018-11-04T12:57:37.491Z,28.97
2018-11-04T13:00:09.228Z,29.40
2018-11-04T13:02:37.973Z,25.67
2018-11-04T13:05:07.524Z,25.70
2018-11-04T13:07:36.287Z,30.33
2018-11-04T13:10:06.443Z,25.90
2018-11-04T13:12:35.144Z,25.63
2018-11-04T13:15:05.309Z,26.03
2018-11-04T13:17:35.119Z,26.97
2018-11-04T13:20:05.321Z,25.93
2018-11-04T13:22:35.052Z,26.53
2018-11-04T13:25:03.895Z,24.70
2018-11-04T13:27:36.407Z,23.20
2018-11-04T13:30:06.173Z,26.00
2018-11-04T13:32:34.908Z,25.00
2018-11-04T13:35:03.667Z,23.80
2018-11-04T13:37:32.352Z,27.00
2018-11-04T13:40:01.018Z,24.40
2018-11-04T13:42:29.682Z,22.53
2018-11-04T13:45:05.329Z,22.40
2018-11-04T13:47:35.131Z,22.10
2018-11-04T13:50:04.107Z,22.13
2018-11-04T13:52:32.763Z,22.77
2018-11-04T13:55:02.499Z,22.15
2018-11-04T13:57:37.240Z,23.10
2018-11-04T14:00:07.944Z,24.17
2018-11-04T14:02:37.749Z,22.50
2018-11-04T14:05:08.042Z,21.90
2018-11-04T14:07:41.656Z,19.13
2018-11-04T14:10:12.078Z,21.70
2018-11-04T14:12:41.218Z,19.40
2018-11-04T14:15:09.905Z,19.03
2018-11-04T14:17:39.254Z,20.03
2018-11-04T14:20:09.446Z,23.40
2018-11-04T14:22:42.035Z,19.97
2018-11-04T14:25:11.691Z,19.67
2018-11-04T14:27:50.608Z,20.57
2018-11-04T14:30:23.030Z,20.13
2018-11-04T14:32:51.870Z,19.47
2018-11-04T14:35:20.624Z,21.30
2018-11-04T14:37:49.379Z,19.50
2018-11-04T14:40:18.057Z,20.10
2018-11-04T14:42:46.766Z,21.17
2018-11-04T14:45:15.460Z,18.57
2018-11-04T14:47:54.185Z,21.55
2018-11-04T14:50:22.860Z,22.10
2018-11-04T14:52:51.582Z,23.13
2018-11-04T14:55:20.173Z,21.80
2018-11-04T14:57:48.852Z,27.85
2018-11-04T15:00:18.924Z,25.53
2018-11-04T15:02:47.621Z,24.57
2018-11-04T15:05:16.266Z,20.10
2018-11-04T15:07:44.929Z,18.67
2018-11-04T15:10:14.602Z,19.23
2018-11-04T15:12:43.400Z,19.17
2018-11-04T15:15:13.588Z,22.77
2018-11-04T15:17:42.397Z,20.48
2018-11-04T15:20:11.812Z,22.70
2018-11-04T15:22:42.128Z,17.97
2018-11-04T15:25:10.832Z,19.87
2018-11-04T15:27:39.872Z,18.40
2018-11-04T15:30:09.767Z,17.67
2018-11-04T15:32:38.694Z,17.00
2018-11-04T15:35:07.567Z,19.17
2018-11-04T15:37:36.268Z,17.47
2018-11-04T15:40:05.535Z,16.03
2018-11-04T15:42:34.254Z,17.90
2018-11-04T15:45:07.528Z,17.70
2018-11-04T15:47:36.269Z,20.53
2018-11-04T15:50:06.549Z,21.70
2018-11-04T15:52:48.208Z,15.30
2018-11-04T15:55:16.880Z,16.93
2018-11-04T15:57:46.567Z,16.53
2018-11-04T16:00:15.581Z,17.50
2018-11-04T16:02:44.257Z,23.73
2018-11-04T16:05:13.017Z,17.93
2018-11-04T16:07:41.645Z,17.60
2018-11-04T16:10:11.073Z,15.00
2018-11-04T16:12:40.888Z,15.87
2018-11-04T16:15:11.696Z,16.57
2018-11-04T16:17:40.561Z,15.47
2018-11-04T16:20:11.544Z,15.40
2018-11-04T16:22:41.815Z,18.47
2018-11-04T16:25:11.102Z,15.80
2018-11-04T16:27:39.917Z,18.73
2018-11-04T16:30:10.037Z,16.70
2018-11-04T16:32:39.174Z,18.90
2018-11-04T16:35:14.961Z,15.20
2018-11-04T16:37:44.640Z,16.27
2018-11-04T16:40:13.274Z,16.97
2018-11-04T16:42:41.919Z,15.27
2018-11-04T16:45:13.186Z,17.40
2018-11-04T16:47:41.968Z,18.33
2018-11-04T16:50:11.681Z,16.17
2018-11-04T16:52:40.516Z,19.50
2018-11-04T16:55:10.084Z,17.80
2018-11-04T16:57:38.706Z,17.30
2018-11-04T17:00:08.544Z,16.93
2018-11-04T17:02:37.577Z,16.90
2018-11-04T17:05:07.169Z,20.20
2018-11-04T17:07:35.787Z,18.53
2018-11-04T17:10:04.951Z,17.87
2018-11-04T17:12:33.647Z,21.03
2018-11-04T17:15:02.308Z,24.87
2018-11-04T17:17:31.002Z,21.83
2018-11-04T17:19:59.671Z,20.90
2018-11-04T17:22:29.152Z,21.70
2018-11-04T17:24:57.846Z,19.70
2018-11-04T17:27:26.498Z,21.53
2018-11-04T17:29:55.196Z,22.13
2018-11-04T17:32:33.721Z,20.77
2018-11-04T17:35:02.356Z,20.90
2018-11-04T17:37:31.119Z,21.33
2018-11-04T17:39:59.845Z,20.60
2018-11-04T17:42:28.545Z,23.90
2018-11-04T17:44:57.201Z,20.27
2018-11-04T17:47:25.871Z,21.17
2018-11-04T17:49:54.540Z,21.80
2018-11-04T17:52:23.361Z,21.00
2018-11-04T17:54:51.997Z,21.87
2018-11-04T17:57:20.668Z,20.80
2018-11-04T17:59:49.338Z,22.80
2018-11-04T18:02:18.000Z,18.90
2018-11-04T18:04:46.648Z,18.10
2018-11-04T18:07:15.351Z,19.63
2018-11-04T18:09:44.324Z,19.57
2018-11-04T18:12:13.009Z,20.23
2018-11-04T18:14:41.709Z,20.47
2018-11-04T18:17:27.833Z,22.20
2018-11-04T18:20:00.019Z,20.70
2018-11-04T18:22:29.084Z,19.57
2018-11-04T18:25:02.445Z,26.00
2018-11-04T18:27:31.169Z,18.23
2018-11-04T18:29:59.921Z,20.70
2018-11-04T18:32:29.343Z,23.40
2018-11-04T18:35:00.824Z,22.47
2018-11-04T18:37:29.837Z,26.07
2018-11-04T18:40:00.703Z,28.03
2018-11-04T18:42:29.478Z,24.63
2018-11-04T18:44:58.554Z,22.47
2018-11-04T18:47:27.539Z,22.00
2018-11-04T18:49:56.535Z,21.07
2018-11-04T18:52:25.312Z,20.37
2018-11-04T18:54:54.034Z,20.53
2018-11-04T18:57:22.864Z,19.40
2018-11-04T18:59:51.584Z,22.83
2018-11-04T19:02:20.365Z,18.23
2018-11-04T19:04:49.956Z,20.33
2018-11-04T19:07:18.759Z,19.67
2018-11-04T19:09:48.583Z,18.87
2018-11-04T19:12:17.500Z,21.03
2018-11-04T19:14:46.422Z,22.00
2018-11-04T19:17:15.178Z,20.17
2018-11-04T19:19:47.136Z,18.63
2018-11-04T19:22:16.029Z,21.17
2018-11-04T19:24:44.696Z,18.27
2018-11-04T19:38:45.919Z,19.70
2018-11-04T19:41:14.816Z,22.00
2018-11-04T19:43:43.648Z,25.83
2018-11-04T19:46:12.426Z,21.67
2018-11-04T19:48:41.227Z,24.83
2018-11-04T19:51:10.091Z,20.13
2018-11-04T19:53:38.895Z,19.50
2018-11-04T19:56:08.089Z,21.20
2018-11-04T19:58:36.983Z,20.70
2018-11-04T20:01:06.620Z,21.37
2018-11-04T20:03:35.569Z,23.93
2018-11-04T20:06:04.704Z,22.23
2018-11-04T20:08:33.566Z,21.70
2018-11-04T20:11:06.144Z,21.27
2018-11-04T20:13:56.930Z,21.43
2018-11-04T20:19:23.721Z,19.93
2018-11-04T20:21:52.956Z,24.80
2018-11-04T20:24:26.902Z,21.50
2018-11-04T20:32:47.236Z,27.30
2018-11-04T20:35:16.579Z,33.97
2018-11-04T20:37:45.365Z,25.00
2018-11-04T20:40:19.255Z,23.83
2018-11-04T20:42:53.705Z,27.17
2018-11-04T20:45:22.461Z,23.13
2018-11-04T20:47:56.421Z,26.20
2018-11-04T20:50:30.387Z,21.17
2018-11-04T20:52:59.078Z,26.13
2018-11-04T20:55:46.121Z,28.07
2018-11-04T20:58:14.879Z,25.33
2018-11-04T21:00:43.547Z,24.60
2018-11-04T21:03:12.242Z,24.37
2018-11-04T21:05:40.953Z,21.37
2018-11-04T21:08:09.656Z,21.07
2018-11-04T21:10:41.506Z,22.77
2018-11-04T21:13:19.592Z,22.50
2018-11-04T21:15:48.299Z,19.30
2018-11-04T21:18:17.118Z,24.10
2018-11-04T21:20:45.817Z,23.37
2018-11-04T21:23:24.314Z,20.83
2018-11-04T21:25:53.204Z,24.90
2018-11-04T21:31:29.776Z,22.67
2018-11-04T21:33:58.473Z,23.13
2018-11-04T21:36:27.296Z,22.27
2018-11-04T21:38:56.296Z,26.90
2018-11-04T21:41:25.264Z,24.17
2018-11-04T21:43:54.219Z,23.20
2018-11-04T21:46:22.659Z,24.57
2018-11-04T21:48:51.416Z,20.47
2018-11-04T21:51:20.065Z,23.57
2018-11-04T21:53:48.749Z,21.17
2018-11-04T21:56:17.484Z,21.60
2018-11-04T21:58:46.169Z,24.70
2018-11-04T22:01:14.833Z,25.80
2018-11-04T22:03:43.684Z,23.93
2018-11-04T22:06:12.428Z,22.17
2018-11-04T22:08:41.118Z,23.53
2018-11-04T22:11:09.805Z,25.47
2018-11-04T22:13:38.587Z,24.27
2018-11-04T22:16:07.249Z,25.77
2018-11-04T22:18:35.968Z,24.17
2018-11-04T22:21:04.691Z,32.30
2018-11-04T22:23:33.341Z,27.33
2018-11-04T22:26:02.002Z,24.03
2018-11-04T22:28:30.642Z,25.07
2018-11-04T22:30:59.338Z,24.20
2018-11-04T22:33:28.304Z,27.50
2018-11-04T22:35:57.016Z,28.40
2018-11-04T22:38:26.440Z,25.90
2018-11-04T22:40:55.117Z,27.27
2018-11-04T22:43:29.217Z,24.67
2018-11-04T22:45:57.904Z,29.97
2018-11-04T22:48:26.528Z,26.40
2018-11-04T22:50:55.214Z,29.93
2018-11-04T22:53:23.880Z,29.50
2018-11-04T22:55:52.632Z,30.50
2018-11-04T22:58:21.332Z,30.47
2018-11-04T23:00:55.356Z,25.30
2018-11-04T23:03:24.020Z,28.00
2018-11-04T23:05:52.690Z,25.97
2018-11-04T23:08:21.376Z,26.33
2018-11-04T23:10:50.072Z,25.30
2018-11-04T23:13:18.732Z,23.80
2018-11-04T23:15:47.396Z,28.37
2018-11-04T23:18:16.018Z,23.10
2018-11-04T23:20:44.669Z,25.40
2018-11-04T23:23:13.310Z,30.17
2018-11-04T23:25:41.952Z,25.03
2018-11-04T23:28:10.608Z,28.07
2018-11-04T23:30:39.244Z,27.97
2018-11-04T23:33:07.893Z,26.00
2018-11-04T23:35:36.570Z,27.77
2018-11-04T23:38:05.357Z,32.90
2018-11-04T23:40:34.012Z,27.10
2018-11-04T23:43:02.701Z,26.73
2018-11-04T23:45:31.367Z,28.83
2018-11-04T23:48:00.032Z,23.77
2018-11-04T23:50:28.701Z,28.70
2018-11-04T23:52:57.372Z,26.13
2018-11-04T23:55:26.028Z,25.10
2018-11-04T23:57:54.736Z,30.37
